Aérodrome :
LOGIN :

S'inscrire | Disclaimer

   EN    FR    IT 

 










Légende :    VFR   VFR Marginal   IFR   IFR Intensif   IFR Très Intensif
Visi : 
Plafond : 
>= 8 km
>= 3000ft
5 à 8 km
1000 à 3000 ft
1500m à 5 km
500 à 1000 ft
800 à 1500m
200 à 500 ft
< 800m
< 200 ft
Symboles :   Orages  Brouillard  Fortes neiges  Fortes précipitations  Vent > 20 kt
SIGMETs :   Divers  Orages  Givrage  Turbulence  Onde Orograph.  Cendres Volcan.







- Altitude de l'aérodrome : 1036 ft
- Code IATA : CLJ


LRCL - Cluj-Napoca International

DERNIER METAR :
  • 201900Z 26003KT 1800 -SN BR BKN011 OVC024 01/M00 Q1014 R07/29//95

METARs EXPIRÉS :
  • 201830Z 26004KT 1800 -SN BR BKN012 OVC024 00/M00 Q1014 R07/29//95
  • 201800Z 26005KT 1800 -SN BR BKN011 OVC020 00/M00 Q1014 R07/29//95
  • 201730Z 26003KT 1500 -SN BR BKN012 OVC025 00/M00 Q1013 R07/29//95
  • 201700Z 27002KT 1200 R25/1700U -SN BR SCT002 OVC012 00/M01 Q1013 R07/29//95
  • 201630Z 00000KT 1200 R25/1700D -SN BR BKN001 OVC018 00/M01 Q1013 R07/29//95

TAF TAF LRCL
Valide du 20 à 18h jusqu'au 21 à 03h UTC


201700Z 2018/2103 VRB04KT 1500 -SN BR SCT005 OVC015
TEMPO 2018/2021 0800 -SN FZFG BKN001 OVC010
BECMG 2100/2102 3000 BR
Pas de NOTAMs connus pour ce terrain.



MET'MAP, la Météo Aéronautique d'un coup d'oeil ! - Copyright ORBIFLY Décembre 2007 - Disclaimer

ORBIFLY MET'MAP TEAM :

Programmation & Développement : Alexandra Zaïnal
Conception & Développement : Baudouin d'Aumeries
Co-Programmation & Développement : Marc-Olivier Méhu
Soutien technique & logistique : Manuel Goepfert

Contact : metmap@orbifly.com




SOURCES & CREDITS :

   NOAA